KBWG/BWG METAR and TAF weather

Enter ICAO airport designator
Station Type Date Time Source
KBWG METAR 2019/02/23 23:06 UTC NOAA

KBWG 232306Z AUTO 02006G16KT 3SM RA BR FEW009 BKN020 OVC100 14/13 A2977 RMK AO2 LTG DSNT NE-S P0012 T01440133


Station Type Date Time Source
KBWG Decoded METAR 2019/02/23 23:06 UTC NOAA

BOWLING GREEN-WARREN CO RGNL, KY, United States (KBWG) 36-58N 086-25W 161M
Feb 23, 2019 - 06:06 PM EST / 2019.02.23 2306 UTC
Wind: from the NNE (020 degrees) at 7 MPH (6 KT) gusting to 18 MPH (16 KT):0
Visibility: 3 mile(s):0
Sky conditions: overcast
Weather: rain; mist; Lightning observed
Precipitation last hour: 0.12 inches
Temperature: 57.9 F (14.4 C)
Dew Point: 55.9 F (13.3 C)
Relative Humidity: 93%
Pressure (altimeter): 29.77 in. Hg (1008 hPa)
ob: KBWG 232306Z AUTO 02006G16KT 3SM RA BR FEW009 BKN020 OVC100 14/13 A2977 RMK AO2 LTG DSNT NE-S P0012 T01440133
cycle: 23

Station Type Date Time Source
KBWG TAF 2019/02/23 22:24 UTC NOAA

TAF
AMD KBWG 232222Z 2322/2418 12007KT 4SM RA OVC015
TEMPO 2322/2324 3SM TSRA BKN008CB
FM240100 18017G26KT 4SM -TSRA OVC010CB WS020/19045KT
TEMPO 2401/2405 VRB20G40KT 2SM TSRA OVC006CB
FM240600 23017G28KT P6SM SCT050 WS020/24045KT
FM241000 23018G30KT P6SM SCT220
FM241400 26021G31KT P6SM BKN024


Example: see airport list